Time;durP1;ratioP1;P1;durP2;ratioP2;P2;SDS_P1;SDS_P2;PMS_P1;PMS_P2;Temp;Humidity;BMP_temperature;BMP_pressure;BME280_temperature;BME280_humidity;BME280_pressure;Samples;Min_cycle;Max_cycle;Signal;HPM_P1;HPM_P2
2022/09/08 00:02:06;;;;;;;;;1.00;1.00;;;;;19.52;67.48;100579.47;4899561;29;45396;-77
2022/09/08 00:04:32;;;;;;;;;0.75;0.75;;;;;19.47;67.57;100565.41;4882098;29;45308;-77
2022/09/08 00:06:57;;;;;;;;;1.00;1.00;;;;;19.47;67.48;100576.25;4897712;29;45435;-77
2022/09/08 00:09:22;;;;;;;;;1.00;1.00;;;;;19.47;67.55;100562.72;4904630;29;45424;-77
2022/09/08 00:11:50;;;;;;;;;1.00;0.25;;;;;19.47;67.55;100559.16;4895436;29;45234;-77
2022/09/08 00:14:15;;;;;;;;;1.00;0.00;;;;;19.43;67.60;100563.91;4898703;29;45451;-77
2022/09/08 00:16:41;;;;;;;;;1.50;1.00;;;;;19.44;67.63;100571.94;4899879;28;45281;-77
2022/09/08 00:19:07;;;;;;;;;0.00;0.00;;;;;19.44;67.61;100574.63;4895982;28;45551;-77
2022/09/08 00:21:32;;;;;;;;;0.00;0.00;;;;;19.40;67.61;100569.56;4900564;29;48083;-77
2022/09/08 00:23:58;;;;;;;;;1.00;1.00;;;;;19.43;67.65;100580.16;4905943;29;45271;-77
2022/09/08 00:26:23;;;;;;;;;0.75;0.75;;;;;19.44;67.47;100582.75;4905947;29;44925;-77
2022/09/08 00:28:49;;;;;;;;;2.00;0.00;;;;;19.46;67.61;100579.06;4877500;29;46139;-77
2022/09/08 00:31:15;;;;;;;;;0.50;0.50;;;;;19.48;67.34;100579.81;4889760;29;48221;-77
2022/09/08 00:33:42;;;;;;;;;0.00;0.00;;;;;19.46;67.76;100579.06;4893050;29;45384;-79
2022/09/08 00:36:13;;;;;;;;;2.00;1.00;;;;;19.46;67.51;100574.50;4901241;29;45269;-79
2022/09/08 00:38:38;;;;;;;;;0.50;0.50;;;;;19.44;67.70;100573.75;4896168;29;46146;-79
2022/09/08 00:41:09;;;;;;;;;0.00;0.00;;;;;19.43;67.94;100569.34;4900312;29;46417;-79
2022/09/08 00:43:36;;;;;;;;;0.50;0.50;;;;;19.44;67.55;100569.22;4886121;29;45261;-79
2022/09/08 00:46:14;;;;;;;;;1.00;0.50;;;;;19.44;67.70;100574.63;4887364;29;45343;-79
2022/09/08 00:48:47;;;;;;;;;0.50;0.50;;;;;19.42;67.56;100570.31;4886050;29;45410;-79
2022/09/08 00:51:16;;;;;;;;;0.50;0.50;;;;;19.40;67.43;100562.28;4898767;29;45487;-79
2022/09/08 00:53:43;;;;;;;;;0.00;0.00;;;;;19.39;67.64;100563.25;4899957;29;46020;-79
2022/09/08 00:56:08;;;;;;;;;1.75;0.75;;;;;19.43;67.51;100569.34;4881800;29;45281;-79
2022/09/08 00:58:39;;;;;;;;;0.00;0.00;;;;;19.41;67.30;100563.13;4885763;29;45392;-79
2022/09/08 01:01:05;;;;;;;;;2.00;0.75;;;;;19.39;67.32;100573.22;4905069;29;45997;-79
2022/09/08 01:03:31;;;;;;;;;0.50;0.50;;;;;19.35;67.17;100564.47;4892635;29;45363;-79
2022/09/08 01:06:20;;;;;;;;;1.50;1.00;;;;;19.42;67.20;100573.88;4892206;29;45438;-79
2022/09/08 01:14:50;;;;;;;;;0.50;0.50;;;;;19.35;67.11;100572.59;4898019;29;45306;-80
2022/09/08 01:17:17;;;;;;;;;0.50;0.50;;;;;19.36;67.44;100579.75;4908235;28;44749;-79
2022/09/08 01:19:46;;;;;;;;;1.00;1.00;;;;;19.31;67.11;100576.50;4908538;29;45417;-79
2022/09/08 01:22:15;;;;;;;;;1.75;0.25;;;;;19.30;66.93;100576.59;4907938;29;45426;-79
2022/09/08 01:24:50;;;;;;;;;2.00;1.00;;;;;19.25;67.04;100569.66;4904935;29;45466;-79
2022/09/08 01:27:26;;;;;;;;;0.00;0.00;;;;;19.27;67.15;100577.69;4904467;29;45509;-79
2022/09/08 01:30:03;;;;;;;;;0.00;0.00;;;;;19.29;67.25;100575.72;4901813;29;45421;-77
2022/09/08 01:32:33;;;;;;;;;0.25;0.25;;;;;19.27;67.21;100584.94;4899495;29;45279;-77
2022/09/08 01:34:58;;;;;;;;;0.00;0.00;;;;;19.32;67.54;100589.03;4891511;29;45303;-77
2022/09/08 01:37:24;;;;;;;;;0.75;0.75;;;;;19.31;67.10;100591.84;4908336;29;44832;-78
2022/09/08 01:39:50;;;;;;;;;0.00;0.00;;;;;19.31;67.19;100589.16;4896313;29;45316;-77
2022/09/08 01:42:15;;;;;;;;;1.00;1.00;;;;;19.27;67.20;100582.22;4898726;29;45380;-77
2022/09/08 01:44:43;;;;;;;;;1.00;0.00;;;;;19.27;67.24;100585.78;4888515;29;45239;-77
2022/09/08 01:47:08;;;;;;;;;0.00;0.00;;;;;19.32;67.07;100597.16;4899257;29;45263;-77
2022/09/08 01:49:33;;;;;;;;;0.00;0.00;;;;;19.33;66.94;100596.19;4887576;29;45173;-77
2022/09/08 01:51:59;;;;;;;;;0.00;0.00;;;;;19.34;66.90;100603.31;4900235;29;46637;-77
2022/09/08 01:54:26;;;;;;;;;0.00;0.00;;;;;19.33;67.32;100601.59;4896529;29;45424;-77
2022/09/08 01:56:52;;;;;;;;;0.00;0.00;;;;;19.34;67.32;100610.59;4908672;29;45379;-77
2022/09/08 01:59:17;;;;;;;;;1.00;1.00;;;;;19.33;67.45;100608.84;4901845;29;45488;-77
2022/09/08 02:01:42;;;;;;;;;0.00;0.00;;;;;19.36;67.07;100612.22;4888061;29;47302;-77
2022/09/08 02:04:08;;;;;;;;;0.25;0.25;;;;;19.38;67.29;100607.56;4888101;29;45339;-77
2022/09/08 02:06:33;;;;;;;;;3.00;1.00;;;;;19.38;66.95;100615.66;4894762;29;45369;-77
2022/09/08 02:08:59;;;;;;;;;0.50;0.50;;;;;19.36;66.56;100609.50;4901852;28;47867;-77
2022/09/08 02:11:24;;;;;;;;;1.00;1.00;;;;;19.37;66.81;100607.66;4899432;29;46908;-77
2022/09/08 02:13:49;;;;;;;;;2.00;1.00;;;;;19.37;67.12;100608.50;4907607;29;45479;-79
2022/09/08 02:16:15;;;;;;;;;1.00;1.00;;;;;19.36;67.09;100608.63;4906344;28;46180;-79
2022/09/08 02:18:41;;;;;;;;;1.25;0.75;;;;;19.33;67.23;100607.03;4886837;29;45408;-79
2022/09/08 02:21:10;;;;;;;;;0.75;0.25;;;;;19.36;67.28;100608.63;4892216;29;45591;-78
2022/09/08 02:23:37;;;;;;;;;1.00;1.00;;;;;19.36;67.11;100612.22;4888809;29;45283;-77
2022/09/08 02:26:04;;;;;;;;;1.00;1.00;;;;;19.36;67.04;100606.81;4889148;29;45344;-77
2022/09/08 02:28:32;;;;;;;;;1.00;1.00;;;;;19.29;66.94;100594.66;4875798;29;45434;-77
2022/09/08 02:31:02;;;;;;;;;0.75;0.75;;;;;19.30;66.87;100596.41;4882473;29;47351;-77
2022/09/08 02:33:29;;;;;;;;;1.00;1.00;;;;;19.32;67.06;100599.84;4902205;29;45599;-77
2022/09/08 02:35:55;;;;;;;;;0.00;0.00;;;;;19.29;67.31;100597.38;4907555;29;45278;-77
2022/09/08 02:38:22;;;;;;;;;0.50;0.50;;;;;19.29;67.31;100577.56;4902808;29;45354;-77
2022/09/08 02:40:48;;;;;;;;;1.00;1.00;;;;;19.32;67.00;100596.31;4899870;29;47140;-77
2022/09/08 02:43:13;;;;;;;;;1.00;1.00;;;;;19.31;66.86;100592.75;4891666;29;45188;-77
2022/09/08 02:45:42;;;;;;;;;1.75;1.00;;;;;19.27;66.66;100585.78;4901613;29;45422;-77
2022/09/08 02:48:08;;;;;;;;;1.00;1.00;;;;;19.22;67.19;100586.13;4904666;29;45271;-77
2022/09/08 02:50:33;;;;;;;;;2.00;1.00;;;;;19.20;66.90;100585.38;4895114;29;46111;-77
2022/09/08 02:52:59;;;;;;;;;1.00;1.00;;;;;19.19;66.97;100582.75;4903434;29;45376;-77
2022/09/08 02:55:24;;;;;;;;;1.75;0.50;;;;;19.10;67.09;100570.78;4896023;29;45312;-77
2022/09/08 02:57:50;;;;;;;;;0.25;0.25;;;;;19.14;67.19;100580.38;4891197;29;45423;-77
2022/09/08 03:00:18;;;;;;;;;1.25;1.00;;;;;19.10;67.30;100567.22;4905516;29;46336;-77
2022/09/08 03:02:43;;;;;;;;;0.25;0.25;;;;;19.04;67.21;100561.25;4888102;29;45260;-77
2022/09/08 03:05:09;;;;;;;;;0.00;0.00;;;;;19.07;67.32;100566.41;4884194;29;45278;-79
2022/09/08 03:07:35;;;;;;;;;0.50;0.50;;;;;19.01;67.55;100555.16;4906795;29;45362;-79
2022/09/08 03:10:02;;;;;;;;;1.00;1.00;;;;;19.05;67.15;100562.97;4902209;29;45354;-80
2022/09/08 03:12:27;;;;;;;;;1.00;0.75;;;;;19.04;67.54;100566.66;4890899;29;45313;-79
2022/09/08 03:14:54;;;;;;;;;1.00;1.00;;;;;19.04;67.44;100560.38;4900829;29;45378;-78
2022/09/08 03:17:20;;;;;;;;;0.75;0.75;;;;;19.00;67.34;100558.88;4903604;28;45952;-79
2022/09/08 03:19:46;;;;;;;;;2.00;2.00;;;;;18.97;67.28;100551.81;4883747;29;47227;-79
2022/09/08 03:22:11;;;;;;;;;1.75;1.00;;;;;18.97;67.45;100556.38;4876675;29;45378;-79
2022/09/08 03:24:37;;;;;;;;;1.00;0.75;;;;;19.01;67.65;100556.06;4906780;29;45776;-79
2022/09/08 03:27:03;;;;;;;;;0.75;0.50;;;;;19.01;67.59;100544.34;4901819;29;45430;-79
2022/09/08 03:29:29;;;;;;;;;1.00;1.00;;;;;19.03;67.38;100545.13;4903879;28;45457;-79
2022/09/08 03:31:54;;;;;;;;;0.50;0.50;;;;;19.00;67.19;100546.19;4908758;29;45310;-79
2022/09/08 03:34:20;;;;;;;;;2.25;1.00;;;;;19.01;67.51;100537.13;4878868;29;45344;-79
2022/09/08 03:36:45;;;;;;;;;3.00;1.00;;;;;19.02;67.57;100544.25;4886932;29;45426;-77
2022/09/08 03:39:10;;;;;;;;;1.00;1.00;;;;;18.98;67.38;100536.47;4901101;28;46112;-77
2022/09/08 03:41:36;;;;;;;;;2.00;2.00;;;;;18.99;67.68;100540.91;4894465;29;45194;-77
2022/09/08 03:44:02;;;;;;;;;3.75;2.00;;;;;18.93;67.45;100533.22;4886337;29;45270;-77
2022/09/08 03:46:27;;;;;;;;;2.50;1.75;;;;;18.90;67.62;100536.16;4901670;29;45583;-77
2022/09/08 03:48:52;;;;;;;;;2.50;1.75;;;;;18.94;67.67;100545.78;4900939;29;46377;-77
2022/09/08 03:51:25;;;;;;;;;2.00;2.00;;;;;18.95;67.63;100542.09;4905621;29;45234;-77
2022/09/08 03:54:46;;;;;;;;;2.00;1.25;;;;;18.88;67.75;100538.97;4880295;29;45275;-77
2022/09/08 03:56:40;;;;;;;;;2.25;2.00;;;;;18.88;67.55;100539.81;4897476;29;45367;-77
2022/09/08 03:59:06;;;;;;;;;2.50;1.50;;;;;18.84;68.14;100532.03;4902864;28;45427;-77
2022/09/08 04:01:31;;;;;;;;;3.25;2.00;;;;;18.85;67.90;100531.91;4896098;29;48962;-79
2022/09/08 04:03:56;;;;;;;;;2.50;2.50;;;;;18.88;67.89;100533.56;4890093;29;45405;-79
2022/09/08 04:06:22;;;;;;;;;4.75;3.00;;;;;18.83;68.10;100536.59;4902808;29;45322;-80
2022/09/08 04:08:47;;;;;;;;;5.00;3.00;;;;;18.85;68.14;100541.88;4902639;29;45583;-79
2022/09/08 04:11:12;;;;;;;;;3.00;3.00;;;;;18.86;67.82;100543.59;4903583;29;47790;-79
2022/09/08 04:13:38;;;;;;;;;4.75;4.50;;;;;18.85;68.26;100548.16;4893946;29;45188;-79
2022/09/08 04:16:04;;;;;;;;;3.25;3.00;;;;;18.87;68.14;100548.03;4906960;28;45281;-79
2022/09/08 04:18:29;;;;;;;;;3.50;2.25;;;;;18.90;68.01;100544.28;4886337;29;47356;-79
2022/09/08 04:21:00;;;;;;;;;4.75;4.25;;;;;18.77;67.97;100528.84;4899037;29;45430;-79
2022/09/08 04:23:26;;;;;;;;;3.75;3.50;;;;;18.86;67.96;100549.00;4891360;29;45410;-79
2022/09/08 04:26:00;;;;;;;;;4.00;4.00;;;;;18.87;68.04;100543.50;4887580;29;45309;-79
2022/09/08 04:28:26;;;;;;;;;5.00;3.00;;;;;18.84;68.46;100535.63;4881630;29;47367;-79
2022/09/08 04:30:52;;;;;;;;;3.25;3.00;;;;;18.86;68.43;100539.06;4889219;29;45538;-79
2022/09/08 04:33:18;;;;;;;;;4.75;4.75;;;;;18.91;68.37;100540.56;4902799;29;45279;-77
2022/09/08 04:35:43;;;;;;;;;4.00;3.75;;;;;18.91;68.30;100540.56;4886886;29;45213;-79
2022/09/08 04:38:08;;;;;;;;;4.75;3.25;;;;;18.86;68.43;100528.25;4902499;29;45743;-79
2022/09/08 04:40:34;;;;;;;;;4.00;4.00;;;;;18.89;68.57;100535.28;4905042;29;45378;-79
2022/09/08 04:43:00;;;;;;;;;3.00;2.75;;;;;18.87;68.22;100523.72;4891310;29;45268;-79
2022/09/08 04:45:25;;;;;;;;;3.75;3.75;;;;;18.90;68.41;100537.00;4889324;29;45472;-79
2022/09/08 04:47:51;;;;;;;;;7.00;2.50;;;;;18.89;68.40;100529.88;4898544;29;45261;-79
2022/09/08 04:50:16;;;;;;;;;2.50;1.75;;;;;18.85;68.45;100531.06;4878393;29;45342;-77
2022/09/08 04:52:41;;;;;;;;;4.00;3.00;;;;;18.84;68.29;100532.91;4902903;29;45312;-77
2022/09/08 04:55:07;;;;;;;;;2.75;2.75;;;;;18.85;68.19;100521.09;4896510;29;45199;-77
2022/09/08 04:57:33;;;;;;;;;3.00;2.00;;;;;18.91;68.47;100532.47;4901818;29;45442;-77
2022/09/08 04:59:59;;;;;;;;;2.75;2.75;;;;;18.95;68.11;100534.00;4903751;29;45371;-77
2022/09/08 05:02:24;;;;;;;;;5.00;2.25;;;;;18.92;68.14;100526.09;4903022;29;45550;-77
2022/09/08 05:04:49;;;;;;;;;8.75;8.00;;;;;18.95;68.36;100534.84;4908298;29;45510;-77
2022/09/08 05:07:15;;;;;;;;;2.00;2.00;;;;;18.95;68.28;100531.28;4902464;29;46036;-77
2022/09/08 05:09:40;;;;;;;;;6.25;1.00;;;;;18.93;68.56;100541.31;4904373;29;45320;-77
2022/09/08 05:12:06;;;;;;;;;2.25;2.25;;;;;18.90;68.37;100534.31;4905637;29;45246;-77
2022/09/08 05:14:31;;;;;;;;;1.25;1.25;;;;;18.92;68.28;100539.63;4897374;29;45308;-77
2022/09/08 05:16:57;;;;;;;;;2.75;2.00;;;;;18.92;68.11;100547.72;4904646;28;46392;-77
2022/09/08 05:19:22;;;;;;;;;3.25;2.00;;;;;18.88;68.35;100545.22;4903407;29;45478;-78
2022/09/08 05:21:48;;;;;;;;;1.50;1.00;;;;;18.87;68.60;100532.66;4874589;29;45248;-78
2022/09/08 05:24:13;;;;;;;;;3.00;3.00;;;;;18.84;68.37;100535.63;4885970;29;45250;-78
2022/09/08 05:26:39;;;;;;;;;3.00;2.00;;;;;18.87;68.53;100534.53;4889833;29;45352;-77
2022/09/08 05:29:04;;;;;;;;;5.00;2.00;;;;;18.88;68.46;100541.66;4896703;29;45267;-77
2022/09/08 05:31:31;;;;;;;;;1.75;1.75;;;;;18.82;68.25;100532.09;4896998;29;45308;-78
2022/09/08 05:33:58;;;;;;;;;1.00;1.00;;;;;18.90;68.54;100549.69;4904940;29;45454;-79
2022/09/08 05:36:27;;;;;;;;;5.25;5.25;;;;;18.86;68.61;100544.47;4900536;28;45392;-79
2022/09/08 05:38:54;;;;;;;;;2.75;2.75;;;;;18.82;68.43;100536.66;4904508;29;45553;-79
2022/09/08 05:41:20;;;;;;;;;1.00;1.00;;;;;18.90;68.75;100550.53;4900615;29;45252;-79
2022/09/08 05:43:45;;;;;;;;;0.00;0.00;;;;;18.87;68.35;100540.78;4888620;29;45356;-80
2022/09/08 05:46:11;;;;;;;;;2.50;2.50;;;;;18.91;68.52;100552.28;4872334;29;47629;-79
2022/09/08 05:48:36;;;;;;;;;2.00;2.00;;;;;18.93;68.30;100554.84;4896291;29;45624;-80
2022/09/08 05:51:07;;;;;;;;;3.50;2.00;;;;;18.96;68.24;100555.53;4889974;29;45356;-80
2022/09/08 05:53:32;;;;;;;;;1.50;1.50;;;;;18.91;68.51;100545.97;4901523;29;45561;-80
2022/09/08 05:56:00;;;;;;;;;2.00;0.25;;;;;18.94;68.30;100551.19;4892982;29;46121;-78
2022/09/08 05:58:26;;;;;;;;;2.75;2.75;;;;;18.95;68.03;100553.78;4902946;29;45251;-80
2022/09/08 06:00:57;;;;;;;;;3.00;3.00;;;;;18.97;68.43;100550.97;4884364;29;45423;-82
2022/09/08 06:03:23;;;;;;;;;3.25;2.00;;;;;18.99;68.28;100557.13;4906910;29;46170;-81
2022/09/08 06:05:48;;;;;;;;;3.00;2.00;;;;;18.96;68.13;100546.53;4878799;29;47493;-79
2022/09/08 06:08:14;;;;;;;;;3.00;1.75;;;;;18.95;68.57;100550.22;4906560;28;45236;-79
2022/09/08 06:10:39;;;;;;;;;3.75;1.75;;;;;18.96;68.24;100550.13;4894997;29;45204;-79
2022/09/08 06:13:04;;;;;;;;;3.00;2.00;;;;;19.04;68.50;100554.97;4902530;29;45550;-79
2022/09/08 06:15:30;;;;;;;;;2.50;2.00;;;;;18.99;68.29;100551.72;4898850;29;45364;-79
2022/09/08 06:17:56;;;;;;;;;3.00;3.00;;;;;19.03;68.34;100564.06;4907164;29;45196;-79
2022/09/08 06:20:22;;;;;;;;;4.25;3.00;;;;;18.99;68.39;100559.84;4904152;29;45286;-79
2022/09/08 06:22:47;;;;;;;;;4.50;4.00;;;;;19.01;68.33;100571.41;4907434;29;45472;-79
2022/09/08 06:25:12;;;;;;;;;2.25;2.25;;;;;19.02;68.43;100565.03;4890147;29;48277;-79
2022/09/08 06:27:48;;;;;;;;;3.00;3.00;;;;;19.05;68.63;100576.50;4903367;29;45341;-80
2022/09/08 06:30:18;;;;;;;;;3.75;2.75;;;;;19.06;68.64;100556.59;4902481;28;45463;-80
2022/09/08 06:32:47;;;;;;;;;3.25;2.50;;;;;19.08;68.14;100553.78;4901772;29;45410;-80
2022/09/08 06:35:34;;;;;;;;;2.50;2.50;;;;;19.10;68.33;100554.53;4903539;29;46316;-79
2022/09/08 06:38:04;;;;;;;;;4.00;2.00;;;;;19.11;68.28;100556.28;4909595;29;45446;-79
2022/09/08 06:40:48;;;;;;;;;3.25;3.25;;;;;19.06;68.15;100553.00;4903228;29;45509;-79
2022/09/08 06:43:30;;;;;;;;;4.75;3.00;;;;;19.04;68.18;100550.44;4904487;29;45348;-79
2022/09/08 06:45:57;;;;;;;;;3.75;3.00;;;;;19.10;68.14;100550.97;4898144;29;45439;-79
2022/09/08 06:48:36;;;;;;;;;3.75;3.00;;;;;19.09;67.87;100555.50;4902505;28;45197;-79
2022/09/08 06:51:36;;;;;;;;;3.00;2.25;;;;;19.11;68.09;100548.16;4905865;29;45336;-79
2022/09/08 06:54:18;;;;;;;;;2.75;2.75;;;;;19.12;68.60;100554.44;4874935;29;45412;-79
2022/09/08 06:57:01;;;;;;;;;3.50;3.00;;;;;19.13;68.09;100548.03;4905142;29;45406;-79
2022/09/08 06:59:58;;;;;;;;;5.00;4.00;;;;;19.13;67.88;100550.72;4904783;29;45479;-79
2022/09/08 07:02:30;;;;;;;;;6.25;3.00;;;;;19.16;67.86;100556.81;4907777;29;45353;-79
2022/09/08 07:05:04;;;;;;;;;5.25;4.00;;;;;19.19;67.92;100555.72;4899769;29;45553;-81
2022/09/08 07:07:57;;;;;;;;;5.50;4.00;;;;;19.23;67.89;100568.06;4902242;28;46788;-80
2022/09/08 07:10:49;;;;;;;;;5.75;3.75;;;;;19.24;67.83;100559.84;4897313;28;45264;-80
2022/09/08 07:13:21;;;;;;;;;5.25;4.50;;;;;19.28;67.83;100556.88;4906758;29;45343;-80
2022/09/08 07:16:05;;;;;;;;;6.25;3.50;;;;;19.29;67.59;100558.63;4893777;28;45515;-80
2022/09/08 07:19:00;;;;;;;;;5.00;3.00;;;;;19.30;67.33;100566.63;4896449;28;45566;-79
2022/09/08 07:21:28;;;;;;;;;4.25;4.25;;;;;19.30;67.51;100563.94;4892530;29;45447;-81
2022/09/08 07:23:57;;;;;;;;;4.25;3.00;;;;;19.32;67.73;100556.56;4901188;28;46106;-80
2022/09/08 07:26:34;;;;;;;;;4.75;3.25;;;;;19.31;67.73;100554.84;4903767;29;45568;-80
2022/09/08 07:29:10;;;;;;;;;7.25;3.25;;;;;19.34;67.39;100554.59;4906046;29;45478;-80
2022/09/08 07:31:41;;;;;;;;;5.00;4.00;;;;;19.38;68.07;100560.69;4900495;28;45676;-81
2022/09/08 07:34:16;;;;;;;;;5.25;4.00;;;;;19.39;67.51;100559.69;4905398;28;45461;-80
2022/09/08 07:37:01;;;;;;;;;3.25;3.25;;;;;19.35;67.87;100555.50;4874650;29;45934;-80
2022/09/08 07:39:37;;;;;;;;;3.75;3.00;;;;;19.35;67.67;100560.91;4901213;29;45417;-80
2022/09/08 07:42:05;;;;;;;;;2.75;2.75;;;;;19.31;67.74;100560.25;4905617;28;45464;-80
2022/09/08 07:44:33;;;;;;;;;5.00;4.00;;;;;19.30;67.51;100563.06;4907428;28;45321;-80
2022/09/08 07:46:58;;;;;;;;;2.00;2.00;;;;;19.33;67.39;100565.53;4905944;29;45332;-80
2022/09/08 07:49:45;;;;;;;;;4.00;3.00;;;;;19.35;67.50;100569.03;4886466;29;47089;-80
2022/09/08 07:52:19;;;;;;;;;4.75;3.00;;;;;19.36;67.51;100568.91;4896265;29;45440;-80
2022/09/08 07:54:45;;;;;;;;;3.00;3.00;;;;;19.37;67.35;100575.19;4905869;29;45348;-80
2022/09/08 07:57:36;;;;;;;;;4.75;4.00;;;;;19.39;67.34;100570.50;4898827;28;45414;-80
2022/09/08 08:00:02;;;;;;;;;3.00;3.00;;;;;19.38;67.45;100566.97;4891221;29;46219;-80
2022/09/08 08:02:56;;;;;;;;;4.00;4.00;;;;;19.40;67.53;100562.28;4888609;29;45346;-80
2022/09/08 08:05:38;;;;;;;;;6.00;2.75;;;;;19.44;67.58;100565.63;4900063;29;45270;-79
2022/09/08 08:08:51;;;;;;;;;5.00;2.25;;;;;19.41;67.51;100565.84;4889289;29;46044;-79
2022/09/08 08:11:33;;;;;;;;;4.00;3.00;;;;;19.47;68.10;100567.25;4885190;29;46236;-78
2022/09/08 08:14:31;;;;;;;;;4.00;3.00;;;;;19.49;67.53;100558.03;4895307;28;45793;-79
2022/09/08 08:17:06;;;;;;;;;3.75;3.25;;;;;19.50;67.19;100576.03;4890972;29;45283;-79
2022/09/08 08:19:53;;;;;;;;;3.25;2.75;;;;;19.53;67.14;100574.91;4891363;29;45410;-79
2022/09/08 08:22:33;;;;;;;;;5.50;4.00;;;;;19.48;67.19;100556.34;4889369;29;45521;-79
2022/09/08 08:25:21;;;;;;;;;4.50;3.75;;;;;19.52;67.04;100570.50;4887527;29;45507;-79
2022/09/08 08:28:06;;;;;;;;;5.25;2.50;;;;;19.54;66.88;100574.81;4898224;29;45495;-79
2022/09/08 08:30:41;;;;;;;;;4.50;2.00;;;;;19.53;66.74;100575.81;4882729;29;45554;-79
2022/09/08 08:33:21;;;;;;;;;2.50;2.00;;;;;19.53;66.92;100573.09;4897596;29;45331;-79
2022/09/08 08:35:55;;;;;;;;;1.75;1.00;;;;;19.54;66.65;100572.09;4889240;29;45585;-79
2022/09/08 08:38:33;;;;;;;;;5.00;3.25;;;;;19.57;66.84;100571.03;4887936;29;45402;-79
2022/09/08 08:41:00;;;;;;;;;5.50;3.75;;;;;19.60;66.81;100584.34;4879932;29;45311;-79
2022/09/08 08:43:34;;;;;;;;;4.00;2.75;;;;;19.62;66.68;100585.94;4905202;29;45418;-79
2022/09/08 08:46:31;;;;;;;;;4.00;3.75;;;;;19.63;66.82;100581.44;4906132;29;45339;-79
2022/09/08 08:49:19;;;;;;;;;3.00;3.00;;;;;19.62;66.58;100588.66;4883371;29;44897;-79
2022/09/08 08:52:06;;;;;;;;;4.25;3.00;;;;;19.68;66.64;100589.19;4901715;29;46514;-79
2022/09/08 08:54:53;;;;;;;;;3.00;2.75;;;;;19.69;66.65;100589.06;4880083;29;48218;-79
2022/09/08 08:57:57;;;;;;;;;3.25;2.00;;;;;19.73;66.61;100592.41;4898926;29;45350;-79
2022/09/08 09:00:27;;;;;;;;;4.00;2.75;;;;;19.69;66.02;100591.78;4775196;29;44941;-79
2022/09/08 09:03:12;;;;;;;;;2.75;2.75;;;;;19.75;65.86;100607.63;4791902;29;45361;-79
2022/09/08 09:05:46;;;;;;;;;2.25;2.25;;;;;19.76;65.79;100603.94;4850492;29;45627;-79
2022/09/08 09:08:26;;;;;;;;;2.25;1.00;;;;;19.75;65.84;100602.22;4904895;29;45402;-82
2022/09/08 09:11:19;;;;;;;;;2.25;2.25;;;;;19.73;66.17;100603.25;4871136;29;45233;-82
2022/09/08 09:14:16;;;;;;;;;2.75;2.00;;;;;19.75;65.97;100606.78;4888429;29;45286;-81
2022/09/08 09:16:57;;;;;;;;;4.00;4.00;;;;;19.76;66.06;100614.78;4881737;29;47283;-81
2022/09/08 09:19:22;;;;;;;;;5.00;2.50;;;;;19.78;65.79;100604.69;4896789;29;45431;-81
2022/09/08 09:22:14;;;;;;;;;2.50;2.50;;;;;19.80;65.64;100616.28;4887116;29;45247;-81
2022/09/08 09:24:50;;;;;;;;;3.50;2.75;;;;;19.77;65.69;100604.81;4900749;29;45623;-81
2022/09/08 09:27:41;;;;;;;;;3.25;1.75;;;;;19.83;65.80;100608.91;4902031;29;45338;-81
2022/09/08 09:30:19;;;;;;;;;2.25;2.00;;;;;19.82;65.48;100609.91;4900984;29;45512;-81
2022/09/08 09:33:19;;;;;;;;;3.50;3.25;;;;;19.86;65.70;100611.38;4898517;29;45323;-81
2022/09/08 09:36:27;;;;;;;;;4.50;3.00;;;;;19.84;65.57;100606.06;4841093;29;45449;-81
2022/09/08 09:38:59;;;;;;;;;2.25;2.25;;;;;19.84;65.72;100603.38;4877712;28;47063;-81
2022/09/08 09:41:27;;;;;;;;;4.00;3.00;;;;;19.87;65.42;100603.16;4897945;29;45942;-81
2022/09/08 09:44:14;;;;;;;;;3.00;2.00;;;;;19.88;65.59;100607.59;4890992;29;45431;-81
2022/09/08 09:47:02;;;;;;;;;5.00;3.00;;;;;19.84;65.70;100599.81;4892255;28;45518;-81
2022/09/08 09:49:43;;;;;;;;;4.00;2.25;;;;;19.84;65.58;100584.41;4884097;29;47679;-81
2022/09/08 09:52:26;;;;;;;;;2.75;2.75;;;;;19.90;65.63;100589.38;4901905;29;45451;-81
2022/09/08 09:55:00;;;;;;;;;2.00;1.25;;;;;19.95;65.80;100591.75;4898431;29;45601;-82
2022/09/08 09:57:45;;;;;;;;;3.00;3.00;;;;;19.98;65.97;100588.81;4899382;28;45358;-81
2022/09/08 10:00:13;;;;;;;;;4.00;3.00;;;;;20.00;65.77;100586.88;4889604;29;47555;-82
2022/09/08 10:02:54;;;;;;;;;3.00;3.00;;;;;20.03;66.15;100596.59;4875053;29;45337;-81
2022/09/08 10:05:32;;;;;;;;;2.75;2.75;;;;;20.06;65.86;100590.94;4900614;29;45329;-81
2022/09/08 10:08:26;;;;;;;;;3.00;3.00;;;;;20.10;65.65;100592.47;4888742;29;45457;-81
2022/09/08 10:11:03;;;;;;;;;3.75;1.00;;;;;20.12;65.67;100590.50;4892851;28;46325;-81
2022/09/08 10:14:06;;;;;;;;;2.25;2.25;;;;;20.15;65.24;100579.44;4895874;29;45355;-81
2022/09/08 10:16:40;;;;;;;;;4.00;4.00;;;;;20.18;66.04;100576.50;4903526;29;46382;-81
2022/09/08 10:19:43;;;;;;;;;2.00;1.00;;;;;20.24;65.84;100570.59;4892447;29;45363;-81
2022/09/08 10:22:15;;;;;;;;;2.25;2.00;;;;;20.30;65.87;100567.41;4876317;29;48440;-82
2022/09/08 10:24:55;;;;;;;;;3.50;3.25;;;;;20.34;65.27;100566.19;4891923;29;45373;-81
2022/09/08 10:28:08;;;;;;;;;2.50;1.50;;;;;20.35;64.81;100553.53;4900905;29;45335;-82
2022/09/08 10:31:08;;;;;;;;;4.50;2.00;;;;;20.38;64.92;100547.00;4872920;29;45293;-81
2022/09/08 10:33:52;;;;;;;;;2.25;2.00;;;;;20.43;64.56;100544.78;4887999;29;46004;-81
2022/09/08 10:36:32;;;;;;;;;3.25;2.00;;;;;20.47;63.82;100554.44;4891876;29;46127;-81
2022/09/08 10:39:32;;;;;;;;;2.00;2.00;;;;;20.50;63.90;100552.34;4871397;29;45375;-81
2022/09/08 10:42:00;;;;;;;;;5.00;2.00;;;;;20.54;64.01;100551.09;4877203;29;45591;-82
2022/09/08 10:44:48;;;;;;;;;2.75;2.75;;;;;20.57;63.62;100547.31;4892849;29;45492;-82
2022/09/08 10:47:49;;;;;;;;;1.75;1.75;;;;;20.61;63.80;100546.06;4904697;29;45074;-82
2022/09/08 10:50:20;;;;;;;;;2.00;1.00;;;;;20.65;62.62;100549.47;4871494;29;45705;-82
2022/09/08 10:53:10;;;;;;;;;2.00;1.00;;;;;20.71;62.62;100546.25;4900504;28;45274;-81
2022/09/08 10:55:48;;;;;;;;;6.25;6.25;;;;;20.77;62.70;100547.66;4903599;29;46776;-81
2022/09/08 10:58:41;;;;;;;;;0.00;0.00;;;;;20.82;62.81;100549.00;4898731;29;45331;-81
2022/09/08 11:01:28;;;;;;;;;3.00;1.00;;;;;20.89;62.32;100533.09;4904817;29;45513;-81
2022/09/08 11:04:25;;;;;;;;;2.25;1.00;;;;;20.96;62.91;100530.75;4901848;29;45614;-81
2022/09/08 11:07:16;;;;;;;;;1.75;1.75;;;;;21.04;63.10;100534.59;4902520;29;46364;-81
2022/09/08 11:09:41;;;;;;;;;1.00;1.00;;;;;21.12;61.76;100528.56;4858987;29;45577;-81
2022/09/08 11:12:44;;;;;;;;;3.25;2.75;;;;;21.20;62.39;100531.53;4901686;28;45252;-81
2022/09/08 11:15:43;;;;;;;;;1.00;1.00;;;;;21.25;61.77;100537.44;4874691;28;45619;-81
2022/09/08 11:18:27;;;;;;;;;0.50;0.50;;;;;21.30;61.21;100537.09;4869172;28;45891;-82
2022/09/08 11:21:00;;;;;;;;;2.00;2.00;;;;;21.32;61.95;100529.66;4873541;28;45495;-83
2022/09/08 11:23:49;;;;;;;;;1.00;1.00;;;;;21.38;61.30;100548.16;4874473;28;45921;-82
2022/09/08 11:26:27;;;;;;;;;1.75;1.50;;;;;21.45;61.36;100538.53;4874223;28;45395;-85
2022/09/08 11:29:26;;;;;;;;;2.00;2.00;;;;;21.54;61.59;100544.25;4856212;28;48445;-83
2022/09/08 11:32:21;;;;;;;;;1.00;1.00;;;;;21.56;60.65;100537.69;4858551;28;46604;-82
2022/09/08 11:35:07;;;;;;;;;2.00;2.00;;;;;21.61;60.69;100548.19;4852926;28;45820;-83
2022/09/08 11:37:51;;;;;;;;;2.00;0.25;;;;;21.63;60.60;100548.91;4850101;28;45526;-83
2022/09/08 11:40:35;;;;;;;;;3.25;1.25;;;;;21.65;60.42;100536.06;4871535;28;45446;-82
2022/09/08 11:43:34;;;;;;;;;1.75;0.25;;;;;21.66;59.81;100535.06;4875962;28;45450;-82
2022/09/08 11:46:33;;;;;;;;;3.00;1.75;;;;;21.70;60.60;100546.56;4898923;29;45790;-82
2022/09/08 11:49:26;;;;;;;;;2.00;0.75;;;;;21.75;59.30;100544.31;4876442;28;46762;-81
2022/09/08 11:52:14;;;;;;;;;1.00;1.00;;;;;21.71;59.28;100532.84;4896706;29;45640;-81
2022/09/08 11:54:46;;;;;;;;;3.25;1.00;;;;;21.84;59.35;100543.56;4897816;29;45473;-80
2022/09/08 11:57:30;;;;;;;;;2.00;1.00;;;;;21.86;58.42;100543.44;4900274;29;45538;-80
2022/09/08 12:00:11;;;;;;;;;2.75;1.75;;;;;21.86;58.98;100532.56;4897669;28;45464;-80
2022/09/08 12:02:55;;;;;;;;;1.50;1.00;;;;;21.90;58.28;100531.31;4894831;28;46315;-81